Time;durP1;ratioP1;P1;durP2;ratioP2;P2;SDS_P1;SDS_P2;PMS_P1;PMS_P2;Temp;Humidity;BMP_temperature;BMP_pressure;BME280_temperature;BME280_humidity;BME280_pressure;Samples;Min_cycle;Max_cycle;Signal;HPM_P1;HPM_P2
2023/07/23 00:01:20;;;;;;;3.83;2.58;;;21.10;59.40;;;;;;5136018;27;20657;-62
2023/07/23 00:03:46;;;;;;;3.72;2.35;;;21.10;59.40;;;;;;5135754;27;20698;-62
2023/07/23 00:06:11;;;;;;;3.50;2.88;;;21.10;59.50;;;;;;5135988;27;20176;-63
2023/07/23 00:08:37;;;;;;;3.13;2.45;;;21.10;59.40;;;;;;5136341;27;20173;-62
2023/07/23 00:11:02;;;;;;;5.53;2.88;;;21.10;60.10;;;;;;5135475;27;20196;-61
2023/07/23 00:13:28;;;;;;;3.22;2.83;;;21.10;59.40;;;;;;5136426;27;20635;-61
2023/07/23 00:15:53;;;;;;;3.40;2.83;;;21.10;59.50;;;;;;5136161;27;20225;-61
2023/07/23 00:18:19;;;;;;;5.00;2.80;;;21.10;59.50;;;;;;5135080;27;20164;-61
2023/07/23 00:20:45;;;;;;;3.05;2.65;;;21.10;59.50;;;;;;5136085;27;20219;-61
2023/07/23 00:23:10;;;;;;;3.03;2.42;;;21.10;59.50;;;;;;5135847;27;20180;-61
2023/07/23 00:25:36;;;;;;;3.13;2.60;;;21.10;59.50;;;;;;5135566;27;20646;-61
2023/07/23 00:28:02;;;;;;;2.33;2.13;;;21.10;60.20;;;;;;5135316;27;20630;-61
2023/07/23 00:30:27;;;;;;;2.90;2.17;;;21.10;59.50;;;;;;5134660;27;20563;-61
2023/07/23 00:32:53;;;;;;;3.58;2.35;;;21.10;59.60;;;;;;5134856;27;20177;-62
2023/07/23 00:35:20;;;;;;;3.97;2.60;;;21.10;59.60;;;;;;5135769;27;20244;-62
2023/07/23 00:37:45;;;;;;;3.63;2.45;;;21.10;59.50;;;;;;5135939;27;20180;-63
2023/07/23 00:40:11;;;;;;;3.25;2.65;;;21.10;59.50;;;;;;5134383;27;20223;-62
2023/07/23 00:42:37;;;;;;;3.22;2.60;;;21.10;59.50;;;;;;5135434;27;20165;-62
2023/07/23 00:45:06;;;;;;;3.30;2.70;;;21.10;59.60;;;;;;5134749;27;20183;-62
2023/07/23 00:47:32;;;;;;;3.33;2.15;;;21.10;59.60;;;;;;5128375;27;20176;-62
2023/07/23 00:49:57;;;;;;;3.92;2.72;;;21.10;59.60;;;;;;5106437;27;20584;-62
2023/07/23 00:52:23;;;;;;;2.95;2.67;;;21.00;59.50;;;;;;5134781;27;20208;-61
2023/07/23 00:54:48;;;;;;;3.15;2.50;;;21.00;60.30;;;;;;5134645;27;20251;-61
2023/07/23 00:57:14;;;;;;;5.22;2.40;;;21.10;59.60;;;;;;5116835;27;20639;-61
2023/07/23 00:59:39;;;;;;;3.35;2.95;;;21.00;59.50;;;;;;5134932;27;20175;-62
2023/07/23 01:02:05;;;;;;;3.63;2.15;;;21.00;59.60;;;;;;5115987;27;20198;-62
2023/07/23 01:04:31;;;;;;;2.60;2.40;;;21.00;59.60;;;;;;5135306;27;20188;-63
2023/07/23 01:06:57;;;;;;;3.63;2.75;;;21.00;59.60;;;;;;5133472;27;20169;-63
2023/07/23 01:09:23;;;;;;;2.63;2.40;;;21.00;59.60;;;;;;5133591;27;20233;-62
2023/07/23 01:11:48;;;;;;;3.67;2.65;;;21.00;59.60;;;;;;5115924;27;20212;-62
2023/07/23 01:14:14;;;;;;;3.22;2.42;;;21.00;59.60;;;;;;5134122;27;20194;-61
2023/07/23 01:16:39;;;;;;;2.80;2.25;;;21.00;59.70;;;;;;5127264;27;20260;-61
2023/07/23 01:19:05;;;;;;;2.45;2.25;;;21.00;59.60;;;;;;5113865;27;20255;-62
2023/07/23 01:21:33;;;;;;;3.80;2.72;;;21.00;59.70;;;;;;5089521;28;20169;-61
2023/07/23 01:23:59;;;;;;;3.42;2.58;;;21.00;59.70;;;;;;5130448;27;20267;-61
2023/07/23 01:26:24;;;;;;;4.47;2.67;;;21.00;59.70;;;;;;5135000;27;20597;-61
2023/07/23 01:28:50;;;;;;;3.03;2.33;;;21.00;59.70;;;;;;5113691;27;20184;-62
2023/07/23 01:31:15;;;;;;;3.35;2.70;;;21.00;59.70;;;;;;5113924;28;20295;-62
2023/07/23 01:33:41;;;;;;;2.88;2.38;;;21.00;59.70;;;;;;5114062;28;20204;-62
2023/07/23 01:36:07;;;;;;;3.92;2.25;;;21.00;59.70;;;;;;5112912;28;20169;-63
2023/07/23 01:38:32;;;;;;;2.88;2.53;;;21.00;59.70;;;;;;5095221;28;20169;-63
2023/07/23 01:40:58;;;;;;;2.78;2.30;;;21.00;59.70;;;;;;5113638;28;20286;-63
2023/07/23 01:43:23;;;;;;;3.47;2.58;;;21.00;59.70;;;;;;5094225;28;20632;-62
2023/07/23 01:45:49;;;;;;;2.58;2.38;;;21.00;59.70;;;;;;5095145;28;20176;-62
2023/07/23 01:48:15;;;;;;;3.25;2.20;;;21.00;59.80;;;;;;5114762;27;20502;-62
2023/07/23 01:50:41;;;;;;;2.85;2.33;;;21.00;59.80;;;;;;5113103;28;20183;-62
2023/07/23 01:53:06;;;;;;;4.45;2.47;;;21.00;59.80;;;;;;5113779;28;20648;-62
2023/07/23 01:55:32;;;;;;;3.75;2.28;;;21.00;59.80;;;;;;5113953;28;20634;-62
2023/07/23 01:57:58;;;;;;;3.85;2.80;;;21.00;59.80;;;;;;5112647;28;20173;-62
2023/07/23 02:00:23;;;;;;;2.65;2.17;;;21.00;59.80;;;;;;5113451;28;20218;-63
2023/07/23 02:02:49;;;;;;;2.40;2.05;;;21.00;59.90;;;;;;5113555;28;20184;-62
2023/07/23 02:05:15;;;;;;;3.83;2.70;;;21.00;59.90;;;;;;5119578;27;20288;-63
2023/07/23 02:07:40;;;;;;;4.10;3.22;;;21.00;59.90;;;;;;5133274;27;20196;-63
2023/07/23 02:10:10;;;;;;;3.42;2.60;;;21.00;60.00;;;;;;5133724;27;20259;-62
2023/07/23 02:12:35;;;;;;;2.97;2.25;;;21.00;59.90;;;;;;5133135;27;20208;-62
2023/07/23 02:15:01;;;;;;;2.45;2.17;;;21.00;60.00;;;;;;5133151;27;20168;-61
2023/07/23 02:17:26;;;;;;;2.97;2.15;;;20.90;60.00;;;;;;5132555;27;20168;-61
2023/07/23 02:19:52;;;;;;;4.22;2.53;;;21.00;60.00;;;;;;5119588;27;20658;-61
2023/07/23 02:22:18;;;;;;;2.28;2.08;;;21.00;60.10;;;;;;5112434;28;20538;-62
2023/07/23 02:24:44;;;;;;;3.33;2.40;;;20.90;60.00;;;;;;5112650;28;20264;-62
2023/07/23 02:27:10;;;;;;;3.60;2.47;;;21.00;60.10;;;;;;5125783;27;20179;-61
2023/07/23 02:29:36;;;;;;;3.85;2.17;;;21.00;60.10;;;;;;5112494;28;20188;-62
2023/07/23 02:32:01;;;;;;;2.55;2.20;;;20.90;60.10;;;;;;5111710;28;20212;-64
2023/07/23 02:34:27;;;;;;;3.08;2.35;;;20.90;60.20;;;;;;5113066;28;20165;-63
2023/07/23 02:36:53;;;;;;;3.30;2.35;;;20.90;60.10;;;;;;5113080;28;20180;-63
2023/07/23 02:39:19;;;;;;;3.92;2.28;;;20.90;60.10;;;;;;5111749;28;20212;-63
2023/07/23 02:41:44;;;;;;;3.47;2.58;;;20.90;60.10;;;;;;5113125;28;20173;-63
2023/07/23 02:44:12;;;;;;;3.25;2.53;;;21.00;60.30;;;;;;5112586;28;20253;-62
2023/07/23 02:46:38;;;;;;;3.72;2.40;;;20.90;60.20;;;;;;5111676;28;20185;-62
2023/07/23 02:49:03;;;;;;;2.58;2.25;;;20.90;60.20;;;;;;5119541;27;20222;-62
2023/07/23 02:51:29;;;;;;;2.53;2.33;;;20.90;60.30;;;;;;5112465;28;20217;-62
2023/07/23 02:53:54;;;;;;;3.50;2.53;;;20.90;60.30;;;;;;5111899;28;20177;-62
2023/07/23 02:56:20;;;;;;;3.85;2.33;;;20.90;60.20;;;;;;5111855;28;20636;-62
2023/07/23 02:58:46;;;;;;;3.17;2.15;;;20.90;60.30;;;;;;5112443;28;20799;-62
2023/07/23 03:01:12;;;;;;;3.05;2.10;;;20.90;61.10;;;;;;5111718;28;20169;-63
2023/07/23 03:03:37;;;;;;;2.90;2.33;;;20.90;60.30;;;;;;5112616;28;20177;-63
2023/07/23 03:06:06;;;;;;;2.28;2.08;;;20.80;60.40;;;;;;5112579;28;20197;-63
2023/07/23 03:08:31;;;;;;;2.95;2.30;;;20.90;60.60;;;;;;5112050;28;20169;-63
2023/07/23 03:10:57;;;;;;;2.63;2.22;;;20.90;60.40;;;;;;5112474;28;20655;-62
2023/07/23 03:13:22;;;;;;;2.83;2.13;;;20.90;60.40;;;;;;5112283;28;20647;-62
2023/07/23 03:15:48;;;;;;;2.65;2.17;;;20.90;60.40;;;;;;5111434;28;20533;-61
2023/07/23 03:18:13;;;;;;;2.75;2.10;;;20.90;60.50;;;;;;5111111;28;20169;-61
2023/07/23 03:20:39;;;;;;;3.22;2.33;;;20.90;60.40;;;;;;5129981;28;20172;-62
2023/07/23 03:23:04;;;;;;;2.88;1.75;;;20.90;60.40;;;;;;5113992;28;20263;-61
2023/07/23 03:25:30;;;;;;;4.40;1.90;;;20.90;60.40;;;;;;5132664;28;20263;-62
2023/07/23 03:27:59;;;;;;;2.33;2.13;;;20.90;60.40;;;;;;5132090;28;20283;-61
2023/07/23 03:30:27;;;;;;;2.45;2.20;;;20.90;60.40;;;;;;5125975;28;20173;-62
2023/07/23 03:32:53;;;;;;;2.83;2.50;;;20.90;61.30;;;;;;5114966;28;20203;-63
2023/07/23 03:35:19;;;;;;;2.58;2.35;;;20.90;60.50;;;;;;5115515;28;20173;-63
2023/07/23 03:37:45;;;;;;;2.67;2.40;;;20.90;60.50;;;;;;5116449;28;20635;-63
2023/07/23 03:40:14;;;;;;;2.35;2.15;;;20.90;60.50;;;;;;5115989;28;20244;-63
2023/07/23 03:42:39;;;;;;;2.38;2.17;;;20.90;60.50;;;;;;5115587;28;20595;-62
2023/07/23 03:45:05;;;;;;;3.33;2.38;;;20.90;60.50;;;;;;5115290;28;20184;-62
2023/07/23 03:47:31;;;;;;;2.70;2.10;;;20.90;60.50;;;;;;5117117;27;20222;-61
2023/07/23 03:49:57;;;;;;;3.45;2.33;;;20.90;60.50;;;;;;5121560;27;20189;-62
2023/07/23 03:52:23;;;;;;;3.38;2.25;;;20.90;60.50;;;;;;5114984;28;20269;-61
2023/07/23 03:54:48;;;;;;;1.92;1.80;;;20.80;61.40;;;;;;5116135;28;20260;-61
2023/07/23 03:57:14;;;;;;;2.53;2.33;;;20.80;60.50;;;;;;5115177;28;20208;-62
2023/07/23 03:59:41;;;;;;;3.30;2.40;;;20.90;60.70;;;;;;5115673;28;20177;-61
2023/07/23 04:02:07;;;;;;;2.20;1.88;;;20.80;60.60;;;;;;5115492;28;20192;-62
2023/07/23 04:04:33;;;;;;;2.38;2.08;;;20.80;60.60;;;;;;5115454;28;20615;-62
2023/07/23 04:06:59;;;;;;;2.42;2.00;;;20.80;60.50;;;;;;5114742;28;20188;-62
2023/07/23 04:09:24;;;;;;;3.80;2.20;;;20.90;60.60;;;;;;5115750;28;20176;-62
2023/07/23 04:11:50;;;;;;;3.45;2.42;;;20.80;60.60;;;;;;5114931;28;20224;-61
2023/07/23 04:14:15;;;;;;;2.47;1.98;;;20.80;60.70;;;;;;5116947;27;20508;-61
2023/07/23 04:16:41;;;;;;;1.88;1.77;;;20.80;60.60;;;;;;5123357;27;20639;-61
2023/07/23 04:19:06;;;;;;;4.07;2.00;;;20.80;60.60;;;;;;5114365;28;20514;-61
2023/07/23 04:21:32;;;;;;;2.08;1.77;;;20.80;60.60;;;;;;5115755;28;20207;-61
2023/07/23 04:23:58;;;;;;;2.35;2.08;;;20.90;60.70;;;;;;5114581;28;20184;-61
2023/07/23 04:26:27;;;;;;;2.05;1.80;;;20.80;60.80;;;;;;5115492;28;20546;-61
2023/07/23 04:28:52;;;;;;;2.63;2.40;;;20.80;60.70;;;;;;5115287;28;20173;-61
2023/07/23 04:31:18;;;;;;;2.40;2.20;;;20.80;60.60;;;;;;5114504;28;20211;-62
2023/07/23 04:33:43;;;;;;;2.42;2.17;;;20.90;60.90;;;;;;5115435;28;20260;-62
2023/07/23 04:36:09;;;;;;;2.10;1.90;;;20.80;60.90;;;;;;5115107;28;20169;-63
2023/07/23 04:38:35;;;;;;;2.35;2.15;;;20.90;60.90;;;;;;5114628;28;20181;-62
2023/07/23 04:41:01;;;;;;;3.15;2.30;;;20.80;60.80;;;;;;5114626;28;20296;-62
2023/07/23 04:43:26;;;;;;;2.00;1.67;;;20.80;60.70;;;;;;5113079;28;20173;-62
2023/07/23 04:45:53;;;;;;;2.60;2.40;;;20.80;60.80;;;;;;5120431;27;20293;-61
2023/07/23 04:48:18;;;;;;;2.35;2.15;;;20.80;60.80;;;;;;5134456;27;20614;-61
2023/07/23 04:50:44;;;;;;;2.90;2.33;;;20.80;60.80;;;;;;5134932;27;20179;-61
2023/07/23 04:53:10;;;;;;;2.17;1.98;;;20.90;60.80;;;;;;5134517;27;20175;-60
2023/07/23 04:55:35;;;;;;;2.28;2.08;;;20.80;60.80;;;;;;5135526;27;20207;-61
2023/07/23 04:58:01;;;;;;;2.30;2.08;;;20.80;60.80;;;;;;5116964;27;20251;-61
2023/07/23 05:00:27;;;;;;;3.28;2.15;;;20.90;60.80;;;;;;5134956;27;20165;-62
2023/07/23 05:02:52;;;;;;;2.50;2.30;;;20.80;60.80;;;;;;5135331;27;20623;-62
2023/07/23 05:05:18;;;;;;;2.97;2.28;;;20.90;61.00;;;;;;5134419;27;20268;-62
2023/07/23 05:07:43;;;;;;;2.40;2.08;;;20.90;60.90;;;;;;5134613;27;20627;-62
2023/07/23 05:10:09;;;;;;;2.47;2.10;;;20.90;60.90;;;;;;5134592;27;20271;-62
2023/07/23 05:12:35;;;;;;;2.33;2.13;;;20.90;60.90;;;;;;5135101;27;20300;-61
2023/07/23 05:15:13;;;;;;;2.42;2.10;;;20.90;60.90;;;;;;5127166;27;20525;-61
2023/07/23 05:17:39;;;;;;;3.05;2.15;;;20.90;60.80;;;;;;5114313;27;20191;-61
2023/07/23 05:20:06;;;;;;;2.47;2.28;;;20.90;60.80;;;;;;5113055;28;20169;-61
2023/07/23 05:22:32;;;;;;;2.72;2.28;;;20.90;60.90;;;;;;5112992;28;20184;-61
2023/07/23 05:24:58;;;;;;;2.30;2.10;;;20.90;60.80;;;;;;5113856;28;20330;-61
2023/07/23 05:27:25;;;;;;;2.53;2.30;;;20.90;60.80;;;;;;5113511;28;20584;-61
2023/07/23 05:29:50;;;;;;;2.30;2.10;;;20.80;60.80;;;;;;5114317;28;20204;-61
2023/07/23 05:32:16;;;;;;;4.20;2.35;;;20.90;60.90;;;;;;5113967;28;20676;-62
2023/07/23 05:34:41;;;;;;;3.47;2.30;;;20.90;60.90;;;;;;5113590;28;20248;-62
2023/07/23 05:37:07;;;;;;;2.55;2.15;;;20.80;60.80;;;;;;5113708;28;20173;-63
2023/07/23 05:39:33;;;;;;;2.30;2.10;;;20.90;60.80;;;;;;5113910;28;20224;-62
2023/07/23 05:41:58;;;;;;;2.70;2.42;;;20.90;60.90;;;;;;5112883;28;20177;-62
2023/07/23 05:44:25;;;;;;;2.80;2.17;;;20.90;60.90;;;;;;5113985;27;20180;-62
2023/07/23 05:46:51;;;;;;;2.60;1.85;;;20.80;60.80;;;;;;5129651;27;20176;-62
2023/07/23 05:49:16;;;;;;;2.47;2.28;;;20.90;60.90;;;;;;5132799;27;20233;-61
2023/07/23 05:51:42;;;;;;;2.78;2.45;;;20.90;61.70;;;;;;5133524;27;20206;-61
2023/07/23 05:54:07;;;;;;;4.20;2.10;;;20.80;60.70;;;;;;5132929;27;20505;-61
2023/07/23 05:56:33;;;;;;;2.08;1.85;;;20.90;60.80;;;;;;5133280;27;20168;-61
2023/07/23 05:58:58;;;;;;;2.47;2.17;;;20.90;61.70;;;;;;5134041;27;20207;-62
2023/07/23 06:01:24;;;;;;;2.30;2.10;;;20.90;60.70;;;;;;5134173;27;20623;-63
2023/07/23 06:03:49;;;;;;;2.83;2.25;;;20.90;60.70;;;;;;5115043;27;20168;-63
2023/07/23 06:06:15;;;;;;;3.10;2.72;;;20.90;60.70;;;;;;5133445;27;20223;-62
2023/07/23 06:08:41;;;;;;;2.50;1.88;;;20.90;60.80;;;;;;5133956;27;20173;-61
2023/07/23 06:11:06;;;;;;;2.53;2.25;;;20.90;60.80;;;;;;5132835;27;20283;-61
2023/07/23 06:13:32;;;;;;;2.55;2.22;;;20.90;60.80;;;;;;5133767;27;20201;-61
2023/07/23 06:15:57;;;;;;;2.80;2.00;;;20.90;60.80;;;;;;5124879;27;20212;-61
2023/07/23 06:18:23;;;;;;;3.88;2.42;;;20.90;60.80;;;;;;5112802;28;20631;-62
2023/07/23 06:20:48;;;;;;;2.15;1.95;;;20.90;60.70;;;;;;5113212;28;20186;-62
2023/07/23 06:23:14;;;;;;;3.95;2.42;;;20.90;60.80;;;;;;5094814;28;20177;-61
2023/07/23 06:25:39;;;;;;;2.45;2.25;;;20.90;60.70;;;;;;5112521;28;20188;-62
2023/07/23 06:28:05;;;;;;;3.00;2.20;;;20.90;60.60;;;;;;5112902;28;20264;-62
2023/07/23 06:30:33;;;;;;;2.67;2.13;;;20.90;60.60;;;;;;5112451;28;20264;-62
2023/07/23 06:32:58;;;;;;;2.80;2.50;;;20.90;60.60;;;;;;5112866;28;20216;-63
2023/07/23 06:35:24;;;;;;;2.92;2.33;;;20.90;60.60;;;;;;5113018;28;20174;-63
2023/07/23 06:37:52;;;;;;;3.33;2.60;;;20.90;60.60;;;;;;5112209;28;20173;-64
2023/07/23 06:40:18;;;;;;;2.38;2.17;;;20.90;60.50;;;;;;5112522;28;20221;-62
2023/07/23 06:42:43;;;;;;;2.88;2.38;;;20.90;60.50;;;;;;5112811;28;20181;-62
2023/07/23 06:45:09;;;;;;;2.60;2.38;;;20.90;60.50;;;;;;5119689;27;20208;-62
2023/07/23 06:47:36;;;;;;;3.60;2.60;;;20.90;60.50;;;;;;5112824;28;20263;-61
2023/07/23 06:50:02;;;;;;;3.35;2.53;;;20.90;60.60;;;;;;5112557;28;20252;-62
2023/07/23 06:52:28;;;;;;;2.85;2.50;;;20.90;60.50;;;;;;5112230;28;20770;-61
2023/07/23 06:54:53;;;;;;;2.83;2.00;;;20.90;60.50;;;;;;5112646;28;20176;-62
2023/07/23 06:57:19;;;;;;;2.58;2.17;;;20.90;60.60;;;;;;5112447;28;20208;-62
2023/07/23 06:59:46;;;;;;;3.20;2.58;;;20.90;60.60;;;;;;5111936;28;20165;-62
2023/07/23 07:02:11;;;;;;;2.53;2.08;;;20.90;60.70;;;;;;5112428;28;20176;-63
2023/07/23 07:04:37;;;;;;;3.25;2.38;;;20.90;60.80;;;;;;5112588;28;20192;-62
2023/07/23 07:07:03;;;;;;;5.50;2.72;;;20.90;60.90;;;;;;5110932;28;20241;-62
2023/07/23 07:09:29;;;;;;;3.67;2.17;;;20.90;60.90;;;;;;5112705;28;20258;-62
2023/07/23 07:11:55;;;;;;;3.65;2.20;;;20.90;60.90;;;;;;5112414;28;20333;-61
2023/07/23 07:14:21;;;;;;;3.85;2.33;;;20.90;61.00;;;;;;5111719;28;20180;-61
2023/07/23 07:16:47;;;;;;;2.90;2.60;;;20.90;61.10;;;;;;5127128;28;20542;-61
2023/07/23 07:19:12;;;;;;;3.38;2.63;;;20.90;61.10;;;;;;5133001;28;20168;-61
2023/07/23 07:21:38;;;;;;;2.63;2.40;;;20.90;62.00;;;;;;5123817;28;20177;-61
2023/07/23 07:24:03;;;;;;;3.13;2.55;;;20.90;61.10;;;;;;5112243;28;20658;-61
2023/07/23 07:26:29;;;;;;;3.72;2.50;;;20.90;61.20;;;;;;5112279;28;20181;-61
2023/07/23 07:28:54;;;;;;;3.58;2.60;;;20.90;61.10;;;;;;5111499;28;20177;-61
2023/07/23 07:31:20;;;;;;;3.45;2.60;;;20.90;61.20;;;;;;5111968;28;20291;-62
2023/07/23 07:33:46;;;;;;;2.90;2.65;;;20.90;61.20;;;;;;5111869;28;20197;-63
2023/07/23 07:36:11;;;;;;;2.80;2.30;;;20.90;61.30;;;;;;5112123;28;20172;-62
2023/07/23 07:38:37;;;;;;;3.10;2.67;;;20.90;61.30;;;;;;5112344;28;20624;-62
2023/07/23 07:41:02;;;;;;;4.47;2.60;;;20.90;61.20;;;;;;5111112;28;20239;-62
2023/07/23 07:43:28;;;;;;;2.50;2.30;;;20.90;61.30;;;;;;5112341;28;20502;-62
2023/07/23 07:45:58;;;;;;;2.45;2.25;;;20.90;61.30;;;;;;5112206;28;20169;-62
2023/07/23 07:48:23;;;;;;;2.30;2.10;;;20.90;61.40;;;;;;5111639;28;20181;-61
2023/07/23 07:51:03;;;;;;;3.05;2.30;;;20.90;61.30;;;;;;5112352;28;20222;-61
2023/07/23 07:53:28;;;;;;;2.95;2.65;;;20.90;61.40;;;;;;5112092;28;20211;-60
2023/07/23 07:55:55;;;;;;;3.22;2.38;;;20.90;62.30;;;;;;5111476;28;20189;-61
2023/07/23 07:58:27;;;;;;;3.60;2.50;;;20.90;61.50;;;;;;5112211;28;20179;-61
2023/07/23 08:00:56;;;;;;;2.33;1.98;;;20.90;61.40;;;;;;5111293;28;20176;-62
2023/07/23 08:03:23;;;;;;;3.38;2.90;;;20.90;61.50;;;;;;5118470;28;20184;-62
2023/07/23 08:05:49;;;;;;;3.17;2.30;;;20.90;61.50;;;;;;5132442;28;20177;-62
2023/07/23 08:08:14;;;;;;;3.75;2.50;;;20.80;61.50;;;;;;5114126;28;20218;-62
2023/07/23 08:10:40;;;;;;;2.75;2.15;;;20.80;62.40;;;;;;5131805;28;20181;-62
2023/07/23 08:13:06;;;;;;;2.92;2.28;;;20.80;61.60;;;;;;5132386;28;20251;-61
2023/07/23 08:15:31;;;;;;;3.78;2.72;;;20.90;61.70;;;;;;5114231;28;20687;-61
2023/07/23 08:18:01;;;;;;;2.72;2.25;;;20.80;61.60;;;;;;5112926;28;20707;-61
2023/07/23 08:20:27;;;;;;;2.80;2.60;;;20.80;61.60;;;;;;5135591;27;20199;-61
2023/07/23 08:22:54;;;;;;;3.08;2.35;;;20.80;61.60;;;;;;5128417;27;20543;-61
2023/07/23 08:25:20;;;;;;;2.30;2.10;;;20.80;61.70;;;;;;5114489;28;20169;-61
2023/07/23 08:27:45;;;;;;;3.70;2.65;;;20.80;61.60;;;;;;5115485;28;20168;-62
2023/07/23 08:30:11;;;;;;;2.65;2.45;;;20.80;61.60;;;;;;5096358;28;20188;-62
2023/07/23 08:32:36;;;;;;;4.53;2.25;;;20.90;61.60;;;;;;5097251;28;20557;-62
2023/07/23 08:35:02;;;;;;;3.42;2.38;;;20.80;61.60;;;;;;5096523;28;20190;-63
2023/07/23 08:37:29;;;;;;;2.45;2.25;;;20.90;61.60;;;;;;5114671;28;20288;-63
2023/07/23 08:39:54;;;;;;;3.25;2.30;;;20.90;61.70;;;;;;5115147;28;20224;-63
2023/07/23 08:42:48;;;;;;;2.65;2.08;;;20.90;61.70;;;;;;5114870;28;20640;-62
2023/07/23 08:45:38;;;;;;;2.63;2.42;;;20.90;61.70;;;;;;5114470;28;20192;-62
2023/07/23 08:48:09;;;;;;;3.53;2.45;;;20.90;61.70;;;;;;5114975;28;20173;-62
2023/07/23 08:50:36;;;;;;;3.58;2.40;;;20.90;61.70;;;;;;5115179;28;20176;-62
2023/07/23 08:53:01;;;;;;;2.53;2.33;;;20.90;61.70;;;;;;5105587;27;20752;-61
2023/07/23 08:55:27;;;;;;;2.60;2.40;;;20.90;61.70;;;;;;5135110;27;20247;-62
2023/07/23 08:57:52;;;;;;;2.08;1.90;;;20.80;61.80;;;;;;5135720;27;20176;-61
2023/07/23 09:00:18;;;;;;;4.82;2.20;;;20.90;61.80;;;;;;5115255;27;20180;-62
2023/07/23 09:02:44;;;;;;;3.10;2.80;;;20.80;61.70;;;;;;5134980;27;20247;-62
2023/07/23 09:05:10;;;;;;;2.65;2.45;;;20.80;61.70;;;;;;5134642;27;20176;-63
2023/07/23 09:07:35;;;;;;;2.50;2.30;;;20.80;61.70;;;;;;5134676;27;20579;-62
2023/07/23 09:10:02;;;;;;;2.97;2.65;;;20.80;61.70;;;;;;5135096;27;20176;-62
2023/07/23 09:12:29;;;;;;;3.83;2.45;;;20.80;61.70;;;;;;5134326;27;20208;-62
2023/07/23 09:14:54;;;;;;;2.65;2.40;;;20.80;61.80;;;;;;5135156;27;20172;-62
2023/07/23 09:17:20;;;;;;;4.13;2.70;;;20.80;62.60;;;;;;5116487;27;20539;-62
2023/07/23 09:19:46;;;;;;;3.97;2.30;;;20.80;61.80;;;;;;5134297;27;20176;-62
2023/07/23 09:22:11;;;;;;;2.60;2.25;;;20.80;61.80;;;;;;5131575;27;20527;-62
2023/07/23 09:24:37;;;;;;;3.88;2.92;;;20.90;61.90;;;;;;5114512;28;20177;-62
2023/07/23 09:27:03;;;;;;;2.58;2.38;;;20.80;61.80;;;;;;5095153;28;20169;-63
2023/07/23 09:29:38;;;;;;;4.00;2.35;;;20.80;61.80;;;;;;5114081;28;20177;-62
2023/07/23 09:32:14;;;;;;;2.65;2.45;;;20.80;61.80;;;;;;5113760;28;20217;-63
2023/07/23 09:34:45;;;;;;;2.65;2.30;;;20.80;61.80;;;;;;5096738;28;20177;-63
2023/07/23 09:37:11;;;;;;;2.40;2.20;;;20.80;62.60;;;;;;5113793;28;20188;-64
2023/07/23 09:39:37;;;;;;;3.00;2.70;;;20.80;61.70;;;;;;5114038;28;20220;-63
2023/07/23 09:42:03;;;;;;;2.85;2.55;;;20.80;61.70;;;;;;5094880;28;20176;-63
2023/07/23 09:44:29;;;;;;;2.72;2.50;;;20.90;61.80;;;;;;5113953;28;20647;-63
2023/07/23 09:46:54;;;;;;;2.78;2.50;;;20.80;61.80;;;;;;5095988;28;20188;-63
2023/07/23 09:49:27;;;;;;;2.53;2.33;;;20.80;61.80;;;;;;5094390;28;20184;-62
2023/07/23 09:51:53;;;;;;;2.83;2.50;;;20.80;61.80;;;;;;5113891;28;20288;-62
2023/07/23 09:54:19;;;;;;;2.75;2.55;;;20.80;61.70;;;;;;5131617;27;20292;-62
2023/07/23 09:56:45;;;;;;;2.55;2.35;;;20.80;61.80;;;;;;5115535;27;20181;-62
2023/07/23 09:59:11;;;;;;;2.60;2.40;;;20.80;61.80;;;;;;5115752;27;20183;-63
2023/07/23 10:01:36;;;;;;;3.00;2.65;;;20.80;61.80;;;;;;5098168;27;20164;-63
2023/07/23 10:04:02;;;;;;;2.50;2.30;;;20.80;61.90;;;;;;5115810;27;20211;-63
2023/07/23 10:06:28;;;;;;;2.20;2.10;;;20.80;61.90;;;;;;5115750;27;20186;-63
2023/07/23 10:08:53;;;;;;;2.47;2.28;;;20.80;61.90;;;;;;5133129;27;20177;-62
2023/07/23 10:11:19;;;;;;;3.40;2.60;;;20.90;61.90;;;;;;5115319;27;20343;-62
2023/07/23 10:13:47;;;;;;;3.30;2.65;;;20.80;61.90;;;;;;5133902;27;20263;-62
2023/07/23 10:16:23;;;;;;;3.13;2.45;;;20.80;61.90;;;;;;5132813;27;20320;-62
2023/07/23 10:18:50;;;;;;;2.45;2.25;;;20.80;62.00;;;;;;5115738;27;20254;-62
2023/07/23 10:21:16;;;;;;;2.58;2.38;;;20.80;62.00;;;;;;5133171;27;20172;-62
2023/07/23 10:23:41;;;;;;;3.40;2.42;;;20.80;62.00;;;;;;5100204;28;20265;-62
2023/07/23 10:26:27;;;;;;;2.50;2.30;;;20.80;61.90;;;;;;5113045;28;20169;-62
2023/07/23 10:29:09;;;;;;;2.55;2.35;;;20.90;62.00;;;;;;5113344;28;20204;-62
2023/07/23 10:31:35;;;;;;;1.90;1.80;;;20.90;61.90;;;;;;5112483;28;20236;-63
2023/07/23 10:34:00;;;;;;;3.15;2.10;;;20.90;61.90;;;;;;5094790;28;20551;-63
2023/07/23 10:36:26;;;;;;;2.55;2.30;;;20.90;61.90;;;;;;5112840;28;20181;-64
2023/07/23 10:39:20;;;;;;;2.38;2.17;;;20.90;61.80;;;;;;5112053;28;20264;-63
2023/07/23 10:41:53;;;;;;;2.40;2.20;;;20.90;61.90;;;;;;5112564;28;20208;-63
2023/07/23 10:44:20;;;;;;;1.85;1.75;;;20.90;62.00;;;;;;5111764;28;20184;-63
2023/07/23 10:46:46;;;;;;;4.30;2.40;;;20.90;62.10;;;;;;5119377;27;20200;-62
2023/07/23 10:49:11;;;;;;;2.72;2.05;;;20.90;62.30;;;;;;5132886;27;20215;-62
2023/07/23 10:51:41;;;;;;;2.58;1.88;;;20.90;62.30;;;;;;5091064;28;20248;-61
2023/07/23 10:54:06;;;;;;;3.15;1.98;;;20.90;62.40;;;;;;5128416;27;20555;-62
2023/07/23 10:56:33;;;;;;;3.45;2.30;;;20.90;62.60;;;;;;5133524;27;20168;-64
2023/07/23 10:59:21;;;;;;;7.88;2.70;;;20.90;62.70;;;;;;5132108;27;20176;-65
2023/07/23 11:01:50;;;;;;;9.32;2.78;;;20.90;63.40;;;;;;5133911;27;20235;-61
2023/07/23 11:04:25;;;;;;;5.38;2.55;;;21.00;63.20;;;;;;5133070;27;20644;-65
2023/07/23 11:06:57;;;;;;;5.35;2.63;;;21.00;63.20;;;;;;5115431;28;20172;-63
2023/07/23 11:09:30;;;;;;;8.45;2.10;;;21.00;63.50;;;;;;5133429;28;20175;-62
2023/07/23 11:11:56;;;;;;;7.85;2.63;;;21.00;63.50;;;;;;5132005;28;20207;-62
2023/07/23 11:14:26;;;;;;;4.18;2.35;;;21.00;63.80;;;;;;5133219;28;20193;-62
2023/07/23 11:16:54;;;;;;;6.18;2.95;;;21.00;64.20;;;;;;5133220;28;20195;-62
2023/07/23 11:19:20;;;;;;;4.90;2.33;;;21.10;64.30;;;;;;5132246;28;20183;-63
2023/07/23 11:21:50;;;;;;;8.73;2.63;;;21.10;64.20;;;;;;5132943;28;20177;-66
2023/07/23 11:24:17;;;;;;;5.38;2.22;;;21.10;64.50;;;;;;5132440;28;20180;-66
2023/07/23 11:26:42;;;;;;;3.17;1.98;;;21.10;64.40;;;;;;5131954;28;20204;-65
2023/07/23 11:29:08;;;;;;;5.63;2.20;;;21.10;64.40;;;;;;5132856;28;20200;-67
2023/07/23 11:31:34;;;;;;;3.83;2.55;;;21.10;64.40;;;;;;5114997;28;20204;-67
2023/07/23 11:34:00;;;;;;;3.53;2.25;;;21.10;64.50;;;;;;5132061;28;20169;-68
2023/07/23 11:36:29;;;;;;;5.63;2.40;;;21.20;64.50;;;;;;5133099;28;20195;-68
2023/07/23 11:38:55;;;;;;;3.00;2.22;;;21.20;64.70;;;;;;5097947;28;20539;-68
2023/07/23 11:41:30;;;;;;;3.47;1.83;;;21.20;64.80;;;;;;5132354;28;20203;-68
2023/07/23 11:43:56;;;;;;;4.32;2.15;;;21.20;64.70;;;;;;5132766;28;20183;-69
2023/07/23 11:46:22;;;;;;;3.90;2.35;;;21.20;64.80;;;;;;5133051;28;20183;-68
2023/07/23 11:48:50;;;;;;;3.53;2.20;;;21.20;64.70;;;;;;5132328;28;20519;-67
2023/07/23 11:51:16;;;;;;;5.30;2.22;;;21.20;64.70;;;;;;5112602;28;20318;-66
2023/07/23 11:53:41;;;;;;;3.45;2.50;;;21.30;64.70;;;;;;5127925;27;20259;-66
2023/07/23 11:56:08;;;;;;;10.13;2.53;;;21.30;64.50;;;;;;5135020;27;20244;-71
2023/07/23 11:58:35;;;;;;;4.68;2.60;;;21.30;64.70;;;;;;5133212;27;20181;-70
2023/07/23 12:01:01;;;;;;;4.88;2.35;;;21.30;64.50;;;;;;5115603;28;20256;-68
2023/07/23 12:03:26;;;;;;;8.65;2.25;;;21.40;64.70;;;;;;5101155;28;20181;-69
2023/07/23 12:05:52;;;;;;;10.50;2.92;;;21.30;64.40;;;;;;5097917;28;20187;-64
2023/07/23 12:08:17;;;;;;;8.13;2.42;;;21.40;65.00;;;;;;5096640;28;20199;-64
2023/07/23 12:10:43;;;;;;;12.95;3.20;;;21.40;64.50;;;;;;5115183;28;20177;-63
2023/07/23 12:13:12;;;;;;;10.68;2.60;;;21.40;64.50;;;;;;5115468;28;20217;-63
2023/07/23 12:15:38;;;;;;;5.18;2.50;;;21.30;64.40;;;;;;5115384;28;20173;-62
2023/07/23 12:18:03;;;;;;;8.00;2.30;;;21.30;64.30;;;;;;5115711;28;20218;-63
2023/07/23 12:20:29;;;;;;;4.45;2.70;;;21.30;64.40;;;;;;5116135;28;20177;-63
2023/07/23 12:22:56;;;;;;;6.53;2.60;;;21.30;64.50;;;;;;5113463;28;20191;-63
2023/07/23 12:25:22;;;;;;;5.18;2.25;;;21.30;64.60;;;;;;5114940;28;20177;-63
2023/07/23 12:27:48;;;;;;;5.50;2.70;;;21.30;64.50;;;;;;5115862;28;20177;-63
2023/07/23 12:30:14;;;;;;;2.80;2.03;;;21.30;64.30;;;;;;5114849;28;20249;-63
2023/07/23 12:32:39;;;;;;;9.50;2.92;;;21.20;64.10;;;;;;5115553;28;20664;-63
2023/07/23 12:35:06;;;;;;;4.40;2.05;;;21.30;64.20;;;;;;5115168;28;20632;-64
2023/07/23 12:37:32;;;;;;;5.47;2.28;;;21.20;64.30;;;;;;5114739;28;20238;-64
2023/07/23 12:39:57;;;;;;;5.72;2.40;;;21.30;64.20;;;;;;5115036;28;20224;-64
2023/07/23 12:42:23;;;;;;;4.70;2.65;;;21.30;64.30;;;;;;5115630;28;20638;-64